Etusivu
METAR-TAF:

METAR-TAF

Lentoasemat :

Kokkola, Suomi

Kokkola-Pietarsaaren lentoasema

Leveyspiiri: 63-43N, Pituuspiiri: 023-09E, korkeus merenpinnasta: 25 m

Tämänhetkinen sää

Tämä raportti tehtiin 32 minuuttia sitten, kello 20.20 UTC
Tuuli 1 kn luoteesta
Lämpötila 2°C
Kosteus 69%
Ilmanpaine 1020 hPa
Näkyvyys 10 km tai enemmän
ei pilviä alle 1500 m:ssä eikä cumulonimbus-pilviä

METAR: EFKK 262020Z 32001KT CAVOK 02/M03 Q1020

Aika: 23:52 (20:52 UTC)

Sääennuste

Tämä raportti tehtiin 28 minuuttia sitten, kello 20.24 UTC
Ennuste voimassa 26. päivästä klo 21 UTC - 26. päivään klo 23 UTC
Tuuli 2 kn eri suunnista
Näkyvyys 10 km tai enemmän
ei pilviä alle 1500 m:ssä eikä cumulonimbus-pilviä

TAF: EFKK 262024Z 2621/2623 VRB02KT CAVOK

Säähavainnot ja -ennusteet yli 4000 lentoasemalta (METAR- ja TAF-raportit).

Käytössä olevat sääasemat on merkitty karttaan keltaisilla ja punaisilla pisteillä.

Aseta hiiri pisteen päälle nähdäksesi sääaseman nimen.

Klikkaa sitten nähdäksesi säähavainnot ja -ennusteet.

Kartan vaihtaminen: klikkaa mustalla rastilla varustettuja vihreitä pisteitä, niin voit zoomata sisään; viivalla varustettua vihreää pistettä, niin voit zoomata ulos tai vihreitä nuolia, niin pääset viereisille kartoille.


METAR-TAF: